Terminal Aerodrome Forecast
Issued by NWS Memphis, TN

Home | Current Version | Previous Version | Text Only | Print | Product List | Glossary On
Versions: 1 2 3 4 5 6 7 8 9 10 11 12 13 14 15 16 17 18 19 20 21 22 23 24 25 26 27 28 29 30 31 32
000
FTUS44 KMEG 182339
TAFMKL
TAF
KMKL 182339Z 1900/1924 VRB03KT P6SM SCT035 BKN120
     FM190300 VRB03KT P6SM -SHRA SCT020 OVC035
     FM190500 09003KT 5SM -SHRA BR SCT009 OVC020
     FM190700 16004KT 5SM -SHRA BR OVC007
     FM191300 23010KT P6SM BKN015
     FM191600 25012KT P6SM SCT025 BKN040
     FM192000 25012G18KT P6SM SCT040 BKN250=

USA.gov is the U.S. government's official web portal to all federal, state and local government web resources and services.